Time;durP1;ratioP1;P1;durP2;ratioP2;P2;SDS_P1;SDS_P2;PMS_P1;PMS_P2;Temp;Humidity;BMP_temperature;BMP_pressure;BME280_temperature;BME280_humidity;BME280_pressure;Samples;Min_cycle;Max_cycle;Signal;HPM_P1;HPM_P2
2023/03/06 00:00:15;;;;;;;49.60;36.40;;;;;;;-0.08;100.00;98034.95;109687;1250;58867;-79
2023/03/06 00:03:03;;;;;;;50.30;38.20;;;;;;;-0.08;100.00;98040.71;109394;1250;67551;-80
2023/03/06 00:05:29;;;;;;;52.20;39.30;;;;;;;-0.07;100.00;98042.58;109647;1251;61130;-80
2023/03/06 00:07:56;;;;;;;48.10;35.60;;;;;;;-0.06;100.00;98042.38;109620;1250;64901;-76
2023/03/06 00:10:26;;;;;;;44.50;36.00;;;;;;;-0.06;100.00;98041.00;109607;1251;58977;-79
2023/03/06 00:12:54;;;;;;;47.10;35.80;;;;;;;-0.06;100.00;98044.11;109672;1250;58960;-79
2023/03/06 00:15:22;;;;;;;49.00;36.40;;;;;;;-0.07;100.00;98046.27;109591;1251;65847;-79
2023/03/06 00:17:49;;;;;;;53.10;39.00;;;;;;;-0.07;100.00;98045.42;109641;1251;60153;-79
2023/03/06 00:20:16;;;;;;;72.10;47.70;;;;;;;-0.09;100.00;98042.33;109632;1250;65544;-80
2023/03/06 00:22:43;;;;;;;74.80;50.60;;;;;;;-0.10;100.00;98043.26;109586;1251;59030;-79
2023/03/06 00:25:15;;;;;;;62.60;45.10;;;;;;;-0.11;100.00;98042.41;109665;1250;58826;-79
2023/03/06 00:27:41;;;;;;;67.40;47.00;;;;;;;-0.12;100.00;98042.63;109634;1251;66665;-80
2023/03/06 00:30:26;;;;;;;60.30;43.60;;;;;;;-0.14;100.00;98048.63;109647;1250;60050;-79
2023/03/06 00:32:53;;;;;;;60.30;43.90;;;;;;;-0.15;100.00;98042.23;109636;1250;65170;-78
2023/03/06 00:35:20;;;;;;;63.60;46.00;;;;;;;-0.14;100.00;98043.22;109592;1251;59302;-79
2023/03/06 00:37:46;;;;;;;54.90;40.30;;;;;;;-0.14;100.00;98040.60;109612;1251;58984;-81
2023/03/06 00:40:17;;;;;;;54.00;39.30;;;;;;;-0.13;100.00;98040.41;109620;1250;67704;-80
2023/03/06 00:42:44;;;;;;;51.60;37.90;;;;;;;-0.13;100.00;98045.98;109404;1251;61191;-80
2023/03/06 00:45:11;;;;;;;42.90;34.10;;;;;;;-0.15;100.00;98046.92;109411;1251;65109;-80
2023/03/06 00:47:38;;;;;;;41.60;32.50;;;;;;;-0.14;100.00;98039.06;109559;1251;58993;-78
2023/03/06 00:50:05;;;;;;;41.70;33.20;;;;;;;-0.13;100.00;98037.61;109553;1251;59043;-79
2023/03/06 00:52:32;;;;;;;45.70;33.30;;;;;;;-0.14;100.00;98038.68;109626;1251;66175;-78
2023/03/06 00:54:59;;;;;;;44.30;33.30;;;;;;;-0.15;100.00;98036.63;109632;1254;60793;-79
2023/03/06 00:57:26;;;;;;;46.30;36.30;;;;;;;-0.13;100.00;98029.77;109592;1251;64107;-79
2023/03/06 00:59:52;;;;;;;46.40;35.70;;;;;;;-0.11;100.00;98024.92;109643;1250;59000;-79
2023/03/06 01:02:19;;;;;;;45.10;35.30;;;;;;;-0.07;100.00;98024.29;109625;1251;58952;-79
2023/03/06 01:04:46;;;;;;;47.50;36.50;;;;;;;-0.07;100.00;98024.25;108124;1251;1002950;-79
2023/03/06 01:07:12;;;;;;;47.80;36.00;;;;;;;-0.06;100.00;98030.34;109684;1251;60804;-80
2023/03/06 01:09:39;;;;;;;46.80;33.10;;;;;;;-0.07;100.00;98033.00;109537;1251;63237;-77
2023/03/06 01:12:06;;;;;;;43.60;33.60;;;;;;;-0.11;100.00;98028.80;109620;1251;58995;-78
2023/03/06 01:14:32;;;;;;;46.80;35.20;;;;;;;-0.15;100.00;98026.33;109424;1251;59023;-79
2023/03/06 01:16:59;;;;;;;47.10;35.50;;;;;;;-0.17;100.00;98024.86;109655;1251;66798;-79
2023/03/06 01:19:26;;;;;;;51.70;36.70;;;;;;;-0.18;100.00;98024.55;109593;1251;59697;-79
2023/03/06 01:21:52;;;;;;;52.10;37.20;;;;;;;-0.19;100.00;98023.88;109615;1251;63742;-78
2023/03/06 01:24:19;;;;;;;45.90;35.40;;;;;;;-0.21;100.00;98018.89;109629;1251;59006;-78
2023/03/06 01:26:45;;;;;;;49.00;37.00;;;;;;;-0.22;100.00;98018.42;109621;1254;58990;-77
2023/03/06 01:29:12;;;;;;;50.90;36.90;;;;;;;-0.27;100.00;98020.17;109632;1251;66995;-77
2023/03/06 01:31:39;;;;;;;51.60;37.50;;;;;;;-0.31;100.00;98017.69;109631;1251;60779;-78
2023/03/06 01:34:05;;;;;;;52.40;36.60;;;;;;;-0.33;100.00;98016.21;109604;1250;64965;-78
2023/03/06 01:36:32;;;;;;;50.50;35.00;;;;;;;-0.35;100.00;98014.89;109575;1251;59135;-78
2023/03/06 01:38:58;;;;;;;49.20;32.10;;;;;;;-0.38;100.00;98014.86;109628;1251;59031;-78
2023/03/06 01:41:25;;;;;;;53.10;37.60;;;;;;;-0.42;100.00;98016.73;108881;1251;1002418;-77
2023/03/06 01:43:51;;;;;;;54.40;35.30;;;;;;;-0.44;100.00;98015.42;109637;1251;59296;-78
2023/03/06 01:46:32;;;;;;;51.60;33.30;;;;;;;-0.45;100.00;98010.23;109608;1251;59163;-77
2023/03/06 01:49:08;;;;;;;52.20;33.80;;;;;;;-0.43;100.00;98011.55;109610;1250;59023;-79
2023/03/06 01:51:39;;;;;;;50.50;33.00;;;;;;;-0.42;100.00;98008.90;109624;1250;58952;-79
2023/03/06 01:54:16;;;;;;;54.90;34.20;;;;;;;-0.42;100.00;98003.48;109630;1250;65726;-79
2023/03/06 01:56:47;;;;;;;50.00;33.10;;;;;;;-0.44;100.00;98003.54;109578;1251;59736;-80
2023/03/06 01:59:15;;;;;;;50.70;33.20;;;;;;;-0.46;100.00;98006.94;109559;1251;64665;-79
2023/03/06 02:01:43;;;;;;;49.60;34.10;;;;;;;-0.48;100.00;98015.37;109586;1251;58957;-79
2023/03/06 02:04:10;;;;;;;57.20;37.50;;;;;;;-0.49;100.00;98018.73;109626;1251;58968;-79
2023/03/06 02:06:42;;;;;;;55.00;37.70;;;;;;;-0.46;100.00;98014.27;109619;1251;67100;-79
2023/03/06 02:09:11;;;;;;;52.10;33.70;;;;;;;-0.43;100.00;98007.70;109632;1250;61045;-79
2023/03/06 02:11:37;;;;;;;44.90;30.50;;;;;;;-0.39;100.00;98004.75;109322;1251;64988;-79
2023/03/06 02:14:04;;;;;;;44.30;31.10;;;;;;;-0.36;100.00;98008.51;109381;1251;59353;-79
2023/03/06 02:16:32;;;;;;;42.80;29.10;;;;;;;-0.35;100.00;98008.77;109604;1251;59012;-78
2023/03/06 02:19:01;;;;;;;44.20;28.10;;;;;;;-0.33;100.00;97998.22;109662;1251;65634;-80
2023/03/06 02:21:33;;;;;;;46.70;31.10;;;;;;;-0.32;100.00;97999.06;109669;1251;60919;-79
2023/03/06 02:24:17;;;;;;;44.80;31.10;;;;;;;-0.33;100.00;97995.96;109635;1251;65053;-79
2023/03/06 02:26:46;;;;;;;51.30;32.20;;;;;;;-0.34;100.00;97993.23;109597;1251;58914;-79
2023/03/06 02:29:18;;;;;;;48.20;30.70;;;;;;;-0.35;100.00;97991.70;109620;1250;59024;-79
2023/03/06 02:31:45;;;;;;;45.90;30.20;;;;;;;-0.38;100.00;97986.59;109665;1251;65871;-79
2023/03/06 02:34:15;;;;;;;48.80;30.30;;;;;;;-0.41;100.00;97984.77;109591;1251;60372;-79
2023/03/06 02:36:46;;;;;;;43.00;29.00;;;;;;;-0.43;100.00;97983.80;109641;1251;64727;-79
2023/03/06 02:39:14;;;;;;;46.50;29.70;;;;;;;-0.44;100.00;97983.67;109612;1250;58996;-80
2023/03/06 02:41:41;;;;;;;45.70;30.30;;;;;;;-0.46;100.00;97984.06;108853;1251;1002424;-78
2023/03/06 02:44:07;;;;;;;43.70;29.90;;;;;;;-0.46;100.00;97984.96;109681;1251;66974;-78
2023/03/06 02:46:34;;;;;;;44.70;27.70;;;;;;;-0.46;100.00;97982.49;109602;1250;59895;-79
2023/03/06 02:49:01;;;;;;;44.70;29.30;;;;;;;-0.44;100.00;97981.23;109607;1250;63818;-80
2023/03/06 02:51:28;;;;;;;42.80;28.60;;;;;;;-0.43;100.00;97984.14;109622;1250;58892;-79
2023/03/06 02:53:54;;;;;;;40.70;26.40;;;;;;;-0.42;100.00;97980.62;109606;1251;59029;-80
2023/03/06 02:56:21;;;;;;;38.20;26.40;;;;;;;-0.40;100.00;97979.67;109611;1251;66689;-80
2023/03/06 02:58:48;;;;;;;39.40;27.20;;;;;;;-0.39;100.00;97978.08;109592;1250;60526;-80
2023/03/06 03:01:15;;;;;;;41.40;28.10;;;;;;;-0.40;100.00;97978.26;109637;1251;65203;-80
2023/03/06 03:03:41;;;;;;;39.70;26.90;;;;;;;-0.40;100.00;97973.58;109593;1251;58952;-80
2023/03/06 03:06:08;;;;;;;41.30;27.60;;;;;;;-0.40;100.00;97971.83;109628;1251;58982;-81
2023/03/06 03:08:35;;;;;;;45.40;28.20;;;;;;;-0.40;100.00;97973.02;109640;1251;67049;-79
2023/03/06 03:11:02;;;;;;;42.70;29.60;;;;;;;-0.40;100.00;97969.88;109666;1251;61248;-80
2023/03/06 03:13:29;;;;;;;46.60;30.70;;;;;;;-0.40;100.00;97970.06;109661;1251;64022;-80
2023/03/06 03:16:08;;;;;;;43.10;28.30;;;;;;;-0.39;100.00;97972.99;109576;1251;59180;-79
2023/03/06 03:18:34;;;;;;;45.60;32.80;;;;;;;-0.38;100.00;97976.64;109687;1251;58959;-80
2023/03/06 03:21:05;;;;;;;90.20;49.80;;;;;;;-0.36;100.00;97974.63;109416;1250;66027;-79
2023/03/06 03:23:32;;;;;;;79.60;46.00;;;;;;;-0.33;100.00;97971.73;109562;1250;59809;-79
2023/03/06 03:26:15;;;;;;;86.70;50.40;;;;;;;-0.32;100.00;97974.64;109634;1250;64830;-79
2023/03/06 03:28:42;;;;;;;77.80;48.00;;;;;;;-0.31;100.00;97971.80;109618;1250;58977;-78
2023/03/06 03:31:11;;;;;;;50.60;34.10;;;;;;;-0.29;100.00;97969.30;109618;1250;59381;-79
2023/03/06 03:33:39;;;;;;;43.40;30.30;;;;;;;-0.28;100.00;97965.06;109657;1250;66022;-78
2023/03/06 03:36:06;;;;;;;45.00;30.40;;;;;;;-0.28;100.00;97962.24;109634;1250;60776;-79
2023/03/06 03:38:34;;;;;;;42.50;30.00;;;;;;;-0.27;100.00;97961.69;109607;1250;64833;-79
2023/03/06 03:41:01;;;;;;;42.00;28.90;;;;;;;-0.25;100.00;97959.34;109587;1250;59097;-79
2023/03/06 03:43:29;;;;;;;40.30;27.70;;;;;;;-0.24;100.00;97956.35;109589;1250;59037;-79
2023/03/06 03:45:55;;;;;;;42.00;27.70;;;;;;;-0.24;100.00;97956.15;109666;1250;66124;-79
2023/03/06 03:48:22;;;;;;;44.80;29.70;;;;;;;-0.23;100.00;97961.38;109650;1250;60716;-78
2023/03/06 03:50:48;;;;;;;45.70;30.60;;;;;;;-0.23;100.00;97954.55;109538;1250;63827;-79
2023/03/06 03:53:15;;;;;;;47.90;32.10;;;;;;;-0.23;100.00;97950.70;109654;1251;58975;-80
2023/03/06 03:55:42;;;;;;;44.50;30.00;;;;;;;-0.21;100.00;97952.91;109685;1251;58927;-78
2023/03/06 03:58:09;;;;;;;47.90;32.40;;;;;;;-0.23;100.00;97946.00;109646;1250;66150;-79
2023/03/06 04:00:35;;;;;;;45.50;30.70;;;;;;;-0.26;100.00;97943.86;109644;1250;60239;-78
2023/03/06 04:03:02;;;;;;;44.70;29.60;;;;;;;-0.29;100.00;97945.19;109633;1250;63582;-78
2023/03/06 04:05:29;;;;;;;49.60;30.40;;;;;;;-0.30;100.00;97941.06;109581;1250;59020;-79
2023/03/06 04:07:55;;;;;;;50.60;30.70;;;;;;;-0.33;100.00;97939.08;109398;1250;59169;-81
2023/03/06 04:10:22;;;;;;;49.90;31.50;;;;;;;-0.35;100.00;97937.09;109861;1250;65839;-81
2023/03/06 04:12:48;;;;;;;50.90;32.30;;;;;;;-0.38;100.00;97937.56;109846;1250;61129;-81
2023/03/06 04:15:15;;;;;;;46.40;30.70;;;;;;;-0.40;100.00;97936.91;109681;1250;62400;-81
2023/03/06 04:17:42;;;;;;;49.50;31.60;;;;;;;-0.41;100.00;97935.73;109683;1250;58975;-81
2023/03/06 04:20:09;;;;;;;47.60;32.10;;;;;;;-0.45;100.00;97934.31;109745;1250;59202;-81
2023/03/06 04:22:35;;;;;;;47.60;32.50;;;;;;;-0.49;100.00;97933.58;109514;1250;66770;-81
2023/03/06 04:25:02;;;;;;;50.00;33.90;;;;;;;-0.53;100.00;97928.85;109581;1250;59792;-80
2023/03/06 04:27:29;;;;;;;59.00;35.90;;;;;;;-0.56;100.00;97929.70;109547;1250;62545;-81
2023/03/06 04:29:55;;;;;;;57.00;36.00;;;;;;;-0.60;100.00;97928.09;109632;1250;58983;-81
2023/03/06 04:32:22;;;;;;;54.70;36.20;;;;;;;-0.63;100.00;97922.13;109643;1250;58902;-81
2023/03/06 04:34:49;;;;;;;53.70;33.90;;;;;;;-0.68;100.00;97924.73;109621;1250;66834;-80
2023/03/06 04:37:22;;;;;;;55.10;34.30;;;;;;;-0.73;100.00;97927.05;109617;1250;59810;-80
2023/03/06 04:39:49;;;;;;;50.30;33.50;;;;;;;-0.79;100.00;97930.95;109571;1250;64157;-80
2023/03/06 04:42:16;;;;;;;52.10;35.80;;;;;;;-0.85;100.00;97931.85;109614;1250;58928;-81
2023/03/06 04:44:43;;;;;;;53.10;37.70;;;;;;;-0.90;100.00;97924.89;109624;1250;59036;-80
2023/03/06 04:47:10;;;;;;;54.50;37.90;;;;;;;-0.94;100.00;97917.73;109688;1250;67090;-80
2023/03/06 04:49:37;;;;;;;57.70;39.30;;;;;;;-0.99;100.00;97910.77;109619;1250;59566;-80
2023/03/06 04:52:04;;;;;;;60.40;43.80;;;;;;;-1.02;100.00;97910.34;109612;1250;64719;-79
2023/03/06 04:54:30;;;;;;;55.20;40.60;;;;;;;-1.04;100.00;97905.57;109572;1250;59130;-79
2023/03/06 04:56:57;;;;;;;50.00;38.20;;;;;;;-1.06;100.00;97904.77;109629;1249;58981;-80
2023/03/06 04:59:24;;;;;;;52.80;39.50;;;;;;;-1.07;100.00;97901.14;109621;1250;65677;-80
2023/03/06 05:01:51;;;;;;;51.00;37.30;;;;;;;-1.07;100.00;97887.38;109632;1250;59783;-78
2023/03/06 05:04:17;;;;;;;55.90;37.60;;;;;;;-1.06;100.00;97884.36;109563;1250;63951;-79
2023/03/06 05:06:44;;;;;;;46.00;33.50;;;;;;;-1.05;100.00;97881.36;109614;1250;58938;-78
2023/03/06 05:09:10;;;;;;;49.90;34.20;;;;;;;-1.04;100.00;97885.52;109614;1250;59015;-78
2023/03/06 05:11:37;;;;;;;41.20;29.80;;;;;;;-1.03;100.00;97888.07;109593;1250;66693;-78
2023/03/06 05:14:04;;;;;;;40.60;29.20;;;;;;;-1.01;100.00;97891.66;109641;1250;60755;-78
2023/03/06 05:16:30;;;;;;;36.20;26.80;;;;;;;-0.99;100.00;97900.66;109582;1250;64696;-77
2023/03/06 05:18:57;;;;;;;33.70;25.00;;;;;;;-0.96;100.00;97898.98;109576;1250;58959;-79
2023/03/06 05:21:23;;;;;;;31.30;24.00;;;;;;;-0.91;100.00;97901.59;109600;1250;58847;-78
2023/03/06 05:23:50;;;;;;;32.70;24.30;;;;;;;-0.86;100.00;97899.98;109625;1250;66659;-78
2023/03/06 05:26:16;;;;;;;33.20;23.60;;;;;;;-0.81;100.00;97901.36;109622;1250;59210;-78
2023/03/06 05:28:43;;;;;;;33.60;23.80;;;;;;;-0.75;100.00;97900.80;109582;1250;62514;-77
2023/03/06 05:31:10;;;;;;;33.50;23.70;;;;;;;-0.71;100.00;97902.35;109630;1250;58872;-78
2023/03/06 05:33:36;;;;;;;29.80;20.80;;;;;;;-0.65;100.00;97903.02;109601;1250;59054;-79
2023/03/06 05:36:04;;;;;;;28.20;20.00;;;;;;;-0.60;100.00;97900.02;109645;1250;66125;-79
2023/03/06 05:38:31;;;;;;;31.60;23.70;;;;;;;-0.54;100.00;97903.80;109376;1250;68600;-79
2023/03/06 05:40:58;;;;;;;36.00;27.10;;;;;;;-0.49;100.00;97902.91;109616;1250;64836;-79
2023/03/06 05:43:24;;;;;;;36.20;25.20;;;;;;;-0.42;100.00;97895.29;109615;1250;58926;-79
2023/03/06 05:45:59;;;;;;;33.40;23.70;;;;;;;-0.31;100.00;97899.73;109590;1250;58857;-79
2023/03/06 05:48:25;;;;;;;26.90;21.10;;;;;;;-0.24;100.00;97900.33;109678;1250;66803;-80
2023/03/06 05:50:56;;;;;;;32.80;23.00;;;;;;;-0.20;100.00;97895.26;109649;1250;61002;-78
2023/03/06 05:53:23;;;;;;;32.70;23.70;;;;;;;-0.13;100.00;97893.77;109599;1250;64852;-80
2023/03/06 05:56:00;;;;;;;32.60;23.00;;;;;;;-0.06;100.00;97886.46;109590;1250;59028;-78
2023/03/06 05:58:29;;;;;;;33.20;24.10;;;;;;;0.02;100.00;97887.73;109652;1250;58927;-79
2023/03/06 06:00:56;;;;;;;28.10;20.30;;;;;;;0.05;100.00;97890.55;109636;1250;66730;-79
2023/03/06 06:03:23;;;;;;;25.70;19.00;;;;;;;0.07;100.00;97888.20;109690;1250;60041;-79
2023/03/06 06:05:51;;;;;;;28.70;22.40;;;;;;;0.11;100.00;97887.35;109576;1250;65042;-80
2023/03/06 06:08:17;;;;;;;27.00;20.80;;;;;;;0.16;100.00;97891.31;109636;1250;58962;-79
2023/03/06 06:10:44;;;;;;;31.10;24.10;;;;;;;0.22;100.00;97893.48;109357;1250;58947;-77
2023/03/06 06:13:11;;;;;;;27.80;20.80;;;;;;;0.29;100.00;97897.90;109620;1250;65992;-79
2023/03/06 06:15:37;;;;;;;32.80;23.40;;;;;;;0.37;100.00;97900.55;109656;1250;59720;-79
2023/03/06 06:18:04;;;;;;;34.10;24.10;;;;;;;0.45;100.00;97905.45;109668;1250;64963;-80
2023/03/06 06:20:30;;;;;;;29.60;19.20;;;;;;;0.52;100.00;97906.69;109608;1250;59224;-79
2023/03/06 06:22:57;;;;;;;30.50;20.20;;;;;;;0.58;100.00;97903.82;109472;1250;59273;-80
2023/03/06 06:25:24;;;;;;;34.20;20.90;;;;;;;0.63;100.00;97901.34;109630;1250;66108;-80
2023/03/06 06:27:54;;;;;;;43.90;21.60;;;;;;;0.69;100.00;97901.23;109639;1250;60783;-80
2023/03/06 06:30:21;;;;;;;37.00;21.40;;;;;;;0.75;100.00;97901.30;109639;1250;63731;-80
2023/03/06 06:32:47;;;;;;;36.30;21.00;;;;;;;0.82;100.00;97894.16;108893;1250;1002923;-80
2023/03/06 06:35:14;;;;;;;26.50;18.00;;;;;;;0.90;100.00;97895.76;109590;1250;59019;-80
2023/03/06 06:37:41;;;;;;;23.50;18.00;;;;;;;0.96;100.00;97899.16;109640;1250;66750;-80
2023/03/06 06:40:10;;;;;;;24.40;18.70;;;;;;;1.03;100.00;97901.80;109440;1250;59378;-80
2023/03/06 06:42:36;;;;;;;24.00;17.30;;;;;;;1.12;100.00;97896.13;109360;1250;64722;-80
2023/03/06 06:45:04;;;;;;;26.50;18.60;;;;;;;1.22;100.00;97896.71;109585;1250;58987;-79
2023/03/06 06:47:31;;;;;;;27.00;18.80;;;;;;;1.31;100.00;97897.15;109614;1250;58966;-80
2023/03/06 06:49:58;;;;;;;30.50;20.10;;;;;;;1.40;100.00;97897.46;109611;1250;65610;-79
2023/03/06 06:52:25;;;;;;;29.20;20.50;;;;;;;1.48;100.00;97899.52;109431;1250;61012;-80
2023/03/06 06:54:52;;;;;;;35.70;21.90;;;;;;;1.55;100.00;97897.41;109660;1250;63915;-79
2023/03/06 06:57:19;;;;;;;35.90;23.40;;;;;;;1.59;100.00;97896.88;109601;1250;58951;-79
2023/03/06 06:59:45;;;;;;;31.70;21.00;;;;;;;1.64;100.00;97899.46;109571;1250;58878;-80
2023/03/06 07:02:16;;;;;;;28.00;20.70;;;;;;;1.68;100.00;97899.79;109599;1250;67219;-79
2023/03/06 07:04:43;;;;;;;22.80;17.90;;;;;;;1.73;100.00;97900.92;109616;1250;60301;-79
2023/03/06 07:07:09;;;;;;;24.70;18.60;;;;;;;1.79;100.00;97900.98;109614;1250;72194;-79
2023/03/06 07:09:38;;;;;;;27.10;19.90;;;;;;;1.87;100.00;97899.89;109649;1250;59037;-79
2023/03/06 07:12:07;;;;;;;24.80;20.80;;;;;;;1.96;100.00;97900.65;109655;1250;59171;-79
2023/03/06 07:14:35;;;;;;;20.80;17.20;;;;;;;2.05;100.00;97897.42;109693;1250;67405;-79
2023/03/06 07:17:01;;;;;;;19.00;15.50;;;;;;;2.13;100.00;97899.10;109605;1250;60785;-80
2023/03/06 07:19:28;;;;;;;19.30;15.60;;;;;;;2.21;100.00;97900.11;109657;1250;64326;-79
2023/03/06 07:21:54;;;;;;;18.10;15.40;;;;;;;2.29;100.00;97902.67;109695;1250;59018;-79
2023/03/06 07:24:21;;;;;;;18.90;15.70;;;;;;;2.39;100.00;97904.27;109686;1250;58934;-79
2023/03/06 07:26:48;;;;;;;16.60;14.00;;;;;;;2.52;100.00;97905.70;109690;1250;66107;-79
2023/03/06 07:29:14;;;;;;;20.10;13.70;;;;;;;2.67;100.00;97912.32;109643;1250;60822;-79
2023/03/06 07:31:41;;;;;;;20.10;15.60;;;;;;;2.80;100.00;97908.99;109668;1250;64830;-80
2023/03/06 07:34:11;;;;;;;19.20;15.00;;;;;;;2.94;100.00;97907.70;108855;1250;1002419;-79
2023/03/06 07:36:39;;;;;;;20.80;18.00;;;;;;;3.08;100.00;97904.67;109634;1250;59046;-80
2023/03/06 07:39:07;;;;;;;21.20;17.80;;;;;;;3.25;100.00;97902.52;109609;1250;67036;-81
2023/03/06 07:41:34;;;;;;;19.50;15.10;;;;;;;3.43;100.00;97901.86;109592;1251;60798;-79
2023/03/06 07:44:01;;;;;;;19.50;15.70;;;;;;;3.57;100.00;97903.38;109603;1250;63707;-79
2023/03/06 07:46:28;;;;;;;18.60;13.30;;;;;;;3.70;100.00;97904.78;109094;1250;59009;-79
2023/03/06 07:48:55;;;;;;;20.60;15.20;;;;;;;3.81;100.00;97909.23;109636;1250;58960;-79
2023/03/06 07:51:21;;;;;;;16.20;13.80;;;;;;;3.95;100.00;97912.30;109616;1250;66752;-79
2023/03/06 07:53:49;;;;;;;16.60;13.30;;;;;;;4.13;100.00;97910.92;109658;1250;59781;-79
2023/03/06 07:56:16;;;;;;;16.50;12.90;;;;;;;4.28;100.00;97909.88;109593;1250;64126;-79
2023/03/06 07:58:44;;;;;;;16.00;13.10;;;;;;;4.36;100.00;97906.56;109570;1250;58953;-79
2023/03/06 08:01:14;;;;;;;16.20;13.60;;;;;;;4.41;100.00;97906.98;109379;1250;59008;-79
2023/03/06 08:03:41;;;;;;;17.90;13.90;;;;;;;4.40;100.00;97909.12;109622;1250;66784;-79
2023/03/06 08:06:14;;;;;;;15.00;12.50;;;;;;;4.42;100.00;97912.91;109401;1250;60280;-79
2023/03/06 08:08:43;;;;;;;18.30;14.60;;;;;;;4.44;100.00;97911.19;109622;1250;64784;-79
2023/03/06 08:11:11;;;;;;;16.50;14.70;;;;;;;4.47;100.00;97909.10;109653;1250;59273;-79
2023/03/06 08:13:38;;;;;;;18.00;13.40;;;;;;;4.53;100.00;97908.73;109640;1250;59034;-79
2023/03/06 08:16:06;;;;;;;16.20;13.80;;;;;;;4.63;100.00;97911.84;109639;1250;67009;-80
2023/03/06 08:18:34;;;;;;;17.60;13.20;;;;;;;4.73;100.00;97913.19;109471;1250;59836;-80
2023/03/06 08:21:05;;;;;;;15.70;13.00;;;;;;;4.81;100.00;97913.86;109610;1250;65542;-80
2023/03/06 08:23:32;;;;;;;18.40;14.30;;;;;;;4.91;100.00;97913.29;109663;1250;59042;-80
2023/03/06 08:26:02;;;;;;;16.50;14.60;;;;;;;5.03;100.00;97907.64;109614;1250;59027;-80
2023/03/06 08:28:28;;;;;;;23.50;16.20;;;;;;;5.16;100.00;97906.48;109643;1250;66110;-80
2023/03/06 08:30:56;;;;;;;18.50;13.90;;;;;;;5.36;100.00;97905.91;109721;1250;59790;-80
2023/03/06 08:33:23;;;;;;;20.70;14.50;;;;;;;5.48;100.00;97907.26;109538;1250;63700;-79
2023/03/06 08:35:51;;;;;;;19.90;15.00;;;;;;;5.59;100.00;97906.75;109698;1250;59059;-79
2023/03/06 08:38:18;;;;;;;15.00;12.20;;;;;;;5.68;100.00;97903.30;109653;1250;58939;-80
2023/03/06 08:40:45;;;;;;;17.80;14.00;;;;;;;5.68;100.00;97901.59;109621;1250;64418;-80
2023/03/06 08:43:11;;;;;;;16.60;12.70;;;;;;;5.77;100.00;97902.92;109718;1250;60746;-80
2023/03/06 08:45:38;;;;;;;15.30;12.30;;;;;;;5.87;100.00;97903.49;109656;1250;63993;-80
2023/03/06 08:48:05;;;;;;;15.00;11.70;;;;;;;5.97;100.00;97902.73;109576;1250;58934;-80
2023/03/06 08:50:31;;;;;;;15.20;10.90;;;;;;;6.02;100.00;97907.86;109392;1250;59043;-80
2023/03/06 08:52:58;;;;;;;11.00;9.80;;;;;;;6.01;100.00;97909.15;109635;1250;67328;-80
2023/03/06 08:55:26;;;;;;;9.90;8.90;;;;;;;6.02;100.00;97909.27;109651;1250;61062;-79
2023/03/06 08:57:53;;;;;;;11.50;9.50;;;;;;;6.10;100.00;97912.08;109629;1250;65310;-80
2023/03/06 09:00:20;;;;;;;11.10;9.40;;;;;;;6.18;100.00;97909.98;109707;1250;59028;-80
2023/03/06 09:02:46;;;;;;;9.70;8.60;;;;;;;6.27;100.00;97907.42;109614;1250;58882;-80
2023/03/06 09:05:13;;;;;;;11.40;9.20;;;;;;;6.34;100.00;97909.64;109628;1250;65692;-79
2023/03/06 09:07:40;;;;;;;11.10;9.50;;;;;;;6.45;100.00;97911.30;109697;1250;60117;-80
2023/03/06 09:10:07;;;;;;;9.70;8.80;;;;;;;6.60;100.00;97912.42;109631;1250;65269;-79
2023/03/06 09:12:34;;;;;;;8.60;7.70;;;;;;;6.71;100.00;97909.95;109521;1252;59030;-80
2023/03/06 09:15:03;;;;;;;10.30;8.20;;;;;;;6.83;100.00;97912.13;109626;1250;58871;-79
2023/03/06 09:17:29;;;;;;;10.70;7.80;;;;;;;6.93;100.00;97908.39;109632;1250;66193;-78
2023/03/06 09:19:56;;;;;;;8.20;7.40;;;;;;;7.05;100.00;97904.71;109631;1250;60751;-80
2023/03/06 09:22:22;;;;;;;9.70;7.60;;;;;;;7.04;100.00;97905.52;109629;1250;64792;-80
2023/03/06 09:24:49;;;;;;;9.10;6.90;;;;;;;6.90;100.00;97907.88;109607;1250;58914;-80
2023/03/06 09:27:16;;;;;;;9.00;7.60;;;;;;;6.73;100.00;97909.42;109674;1250;59040;-79
2023/03/06 09:29:43;;;;;;;8.90;7.60;;;;;;;6.62;100.00;97911.23;109589;1250;65796;-79
2023/03/06 09:32:09;;;;;;;8.00;7.20;;;;;;;6.56;100.00;97910.76;109343;1250;59989;-79
2023/03/06 09:34:36;;;;;;;8.10;7.40;;;;;;;6.57;100.00;97908.91;109435;1250;62710;-79
2023/03/06 09:37:03;;;;;;;7.90;6.90;;;;;;;6.55;100.00;97904.44;109595;1250;58969;-79
2023/03/06 09:39:30;;;;;;;7.60;6.80;;;;;;;6.55;100.00;97905.02;109666;1250;58970;-81
2023/03/06 09:41:57;;;;;;;8.80;6.90;;;;;;;6.53;100.00;97899.15;109647;1250;66814;-79
2023/03/06 09:44:27;;;;;;;7.20;6.50;;;;;;;6.58;100.00;97901.80;109650;1250;69042;-80
2023/03/06 09:46:59;;;;;;;5.50;5.00;;;;;;;6.57;100.00;97906.30;109319;1250;63774;-79
2023/03/06 09:49:52;;;;;;;6.00;5.50;;;;;;;6.37;100.00;97904.31;109619;1250;59491;-79
2023/03/06 09:52:44;;;;;;;6.40;5.30;;;;;;;6.13;100.00;97899.93;109682;1250;58982;-80
2023/03/06 09:55:18;;;;;;;6.60;5.70;;;;;;;6.03;100.00;97896.33;109566;1250;67271;-79
2023/03/06 09:58:05;;;;;;;6.50;5.30;;;;;;;6.12;100.00;97892.58;109694;1250;60816;-79
2023/03/06 10:00:37;;;;;;;6.40;5.40;;;;;;;6.37;100.00;97891.92;109650;1250;63676;-79
2023/03/06 10:03:42;;;;;;;5.00;4.50;;;;;;;6.60;100.00;97888.08;109552;1250;59025;-79
2023/03/06 10:06:15;;;;;;;5.80;4.80;;;;;;;6.69;100.00;97885.52;109049;1257;59255;-79
2023/03/06 10:08:50;;;;;;;6.00;4.60;;;;;;;6.69;100.00;97876.55;109037;1258;66703;-79
2023/03/06 10:11:26;;;;;;;6.40;4.60;;;;;;;6.77;100.00;97877.58;109046;1257;59757;-79
2023/03/06 10:14:09;;;;;;;6.90;4.80;;;;;;;6.87;100.00;97874.56;109027;1258;64017;-80
2023/03/06 10:16:36;;;;;;;7.70;5.30;;;;;;;6.93;100.00;97871.89;108996;1257;59036;-79
2023/03/06 10:19:16;;;;;;;5.70;4.90;;;;;;;6.99;100.00;97870.73;109051;1258;59174;-80
2023/03/06 10:22:00;;;;;;;5.60;4.60;;;;;;;7.11;100.00;97865.80;108998;1258;66981;-78
2023/03/06 10:24:48;;;;;;;4.70;4.30;;;;;;;7.12;100.00;97863.33;108976;1258;60729;-78
2023/03/06 10:27:30;;;;;;;7.50;5.30;;;;;;;7.04;100.00;97860.84;109015;1257;64828;-78
2023/03/06 10:30:02;;;;;;;5.70;5.10;;;;;;;7.03;100.00;97860.52;108966;1258;58991;-79
2023/03/06 10:32:54;;;;;;;6.30;5.30;;;;;;;6.94;100.00;97854.65;109053;1258;59324;-78
2023/03/06 10:35:27;;;;;;;5.20;4.70;;;;;;;6.92;100.00;97848.95;109031;1259;66166;-78
2023/03/06 10:38:00;;;;;;;5.40;4.70;;;;;;;6.91;100.00;97844.81;108950;1259;60051;-78
2023/03/06 10:40:37;;;;;;;5.50;5.00;;;;;;;6.92;100.00;97844.55;109304;1253;63939;-78
2023/03/06 10:43:09;;;;;;;6.00;5.40;;;;;;;6.91;100.00;97840.90;109541;1252;58919;-79
2023/03/06 10:45:50;;;;;;;6.50;5.80;;;;;;;6.86;100.00;97843.20;109550;1252;58869;-78
2023/03/06 10:48:24;;;;;;;6.00;5.20;;;;;;;6.84;100.00;97843.16;109482;1251;64886;-79
2023/03/06 10:50:53;;;;;;;6.50;5.50;;;;;;;6.76;100.00;97839.82;109447;1252;144458;-78
2023/03/06 10:53:27;;;;;;;5.90;5.30;;;;;;;6.77;100.00;97835.86;109538;1251;65208;-79
2023/03/06 10:55:58;;;;;;;6.80;5.20;;;;;;;6.84;100.00;97833.63;109538;1252;59034;-78
2023/03/06 10:58:28;;;;;;;6.70;6.00;;;;;;;6.91;100.00;97826.97;109502;1253;58908;-78
2023/03/06 11:01:05;;;;;;;6.70;5.20;;;;;;;7.00;100.00;97825.98;109466;1253;67238;-78
2023/03/06 11:03:34;;;;;;;9.20;6.50;;;;;;;7.16;100.00;97820.98;109547;1252;60287;-78
2023/03/06 11:06:13;;;;;;;6.00;5.40;;;;;;;7.30;100.00;97819.91;109545;1252;64776;-79
2023/03/06 11:08:42;;;;;;;5.40;4.80;;;;;;;7.48;100.00;97820.96;109245;1252;59039;-78
2023/03/06 11:11:21;;;;;;;8.60;7.10;;;;;;;7.61;100.00;97810.98;109623;1252;59265;-79
2023/03/06 11:13:57;;;;;;;11.90;8.50;;;;;;;7.77;100.00;97806.98;109568;1252;65670;-79